Terminal Aerodrome Forecast
Issued by NWS

Home | Current Version | Previous Version | Text Only | Print | Product List | Glossary On
Versions: 1 2 3 4 5 6 7 8 9 10 11 12 13 14 15 16 17
000
FTUS43 KPAH 292117 AAA
TAFOWB
TAF AMD
KOWB 292117Z 2921/3018 36006KT P6SM VCSH SCT030 BKN070
     FM300100 34006KT P6SM VCSH SCT012 BKN030
     FM300600 33004KT 4SM BR VCSH BKN007
     FM301400 32005KT 4SM -SHRA BR OVC015=

USA.gov is the U.S. government's official web portal to all federal, state and local government web resources and services.